Hazel Green, Wisconsin
Current Conditions -  °F | °C
As of 8:55 PM on Saturday 25 Oct 2014 (Local Time) from KPVB Reporting Station
Clear Clear  
Wind Chill: 51°   Ceiling: Unl
Heat Index: 51°   Visibility: 10mi
Dew Point: 30°   Wind: 6mph
Humidity: 45%   Direction: 290°WNW
Pressure: 30.03"   Gusts: NA
Location:  42.53°N, 90.43°W
Report Text: KPVB 260155Z AUTO 29005KT 10SM CLR 11/M01 A3003 RMK AO1 T01061009
Loading
Personal Weather Stations






























Interactive Weather Map
Tropical Storm Tracking
New forecast layout! Learn more

10-Day Weather Forecast

Advertisements
Track Severe Weather on mobile